Time;durP1;ratioP1;P1;durP2;ratioP2;P2;SDS_P1;SDS_P2;PMS_P1;PMS_P2;Temp;Humidity;BMP_temperature;BMP_pressure;BME280_temperature;BME280_humidity;BME280_pressure;Samples;Min_cycle;Max_cycle;Signal;HPM_P1;HPM_P2
2023/09/06 00:01:42;;;;;;;5.60;4.30;;;;;;;;;;4995210;28;20261;-73
2023/09/06 00:04:08;;;;;;;6.68;4.68;;;;;;;;;;4995150;28;20203;-73
2023/09/06 00:06:35;;;;;;;7.18;4.57;;;;;;;;;;4995392;28;20211;-73
2023/09/06 00:09:01;;;;;;;5.82;5.10;;;;;;;;;;4994688;28;20577;-73
2023/09/06 00:11:28;;;;;;;5.35;4.85;;;;;;;;;;4994638;28;20226;-73
2023/09/06 00:13:55;;;;;;;5.20;4.70;;;;;;;;;;4994559;28;20601;-73
2023/09/06 00:16:21;;;;;;;5.10;4.75;;;;;;;;;;4994985;28;20207;-73
2023/09/06 00:18:47;;;;;;;5.65;4.95;;;;;;;;;;4994867;28;20703;-73
2023/09/06 00:21:14;;;;;;;5.85;4.70;;;;;;;;;;4994749;28;20298;-73
2023/09/06 00:23:40;;;;;;;5.68;4.78;;;;;;;;;;4994893;28;20203;-74
2023/09/06 00:26:06;;;;;;;5.40;5.00;;;;;;;;;;4994842;28;20235;-73
2023/09/06 00:28:34;;;;;;;7.35;4.53;;;;;;;;;;4994794;28;20207;-73
2023/09/06 00:31:00;;;;;;;5.63;5.05;;;;;;;;;;4994755;28;20227;-73
2023/09/06 00:33:29;;;;;;;4.75;4.35;;;;;;;;;;4994281;28;20703;-73
2023/09/06 00:35:55;;;;;;;5.22;4.80;;;;;;;;;;4994515;28;20281;-73
2023/09/06 00:38:21;;;;;;;4.68;4.28;;;;;;;;;;4994501;28;20226;-73
2023/09/06 00:40:50;;;;;;;5.43;4.63;;;;;;;;;;4994372;28;20210;-73
2023/09/06 00:43:16;;;;;;;4.95;4.53;;;;;;;;;;4994177;28;20560;-73
2023/09/06 00:45:45;;;;;;;4.82;4.43;;;;;;;;;;4994547;28;20210;-73
2023/09/06 00:48:11;;;;;;;4.85;4.28;;;;;;;;;;4994270;28;20210;-73
2023/09/06 00:50:38;;;;;;;4.68;4.22;;;;;;;;;;4994067;28;20199;-73
2023/09/06 00:53:06;;;;;;;5.00;4.32;;;;;;;;;;4993763;28;20219;-73
2023/09/06 00:55:33;;;;;;;4.72;4.32;;;;;;;;;;4992770;28;20293;-73
2023/09/06 00:57:59;;;;;;;5.07;4.70;;;;;;;;;;4993801;28;20701;-73
2023/09/06 01:00:26;;;;;;;4.97;4.30;;;;;;;;;;4993599;28;20200;-73
2023/09/06 01:02:53;;;;;;;4.55;4.25;;;;;;;;;;4993863;28;20259;-73
2023/09/06 01:05:20;;;;;;;4.70;4.30;;;;;;;;;;4994010;28;20210;-73
2023/09/06 01:07:49;;;;;;;5.53;4.60;;;;;;;;;;4993847;28;20207;-73
2023/09/06 01:10:15;;;;;;;4.45;4.18;;;;;;;;;;4993865;28;20214;-73
2023/09/06 01:12:41;;;;;;;7.03;4.82;;;;;;;;;;4993605;28;20226;-73
2023/09/06 01:15:10;;;;;;;5.20;4.65;;;;;;;;;;4993967;28;20215;-73
2023/09/06 01:17:37;;;;;;;4.65;4.35;;;;;;;;;;4993742;28;20203;-73
2023/09/06 01:20:08;;;;;;;7.38;5.13;;;;;;;;;;4993590;28;20313;-73
2023/09/06 01:22:36;;;;;;;5.00;4.60;;;;;;;;;;4993852;28;20648;-73
2023/09/06 01:25:04;;;;;;;4.60;4.18;;;;;;;;;;4994392;28;20215;-73
2023/09/06 01:27:31;;;;;;;4.93;4.43;;;;;;;;;;4993415;28;20689;-73
2023/09/06 01:29:57;;;;;;;5.85;4.18;;;;;;;;;;4993397;28;20207;-73
2023/09/06 01:32:24;;;;;;;5.30;4.90;;;;;;;;;;4993195;28;20318;-73
2023/09/06 01:34:50;;;;;;;4.90;4.47;;;;;;;;;;4993463;28;20663;-73
2023/09/06 01:37:16;;;;;;;4.00;3.75;;;;;;;;;;4993632;28;20207;-73
2023/09/06 01:39:42;;;;;;;4.75;4.20;;;;;;;;;;4993265;28;20221;-73
2023/09/06 01:42:10;;;;;;;4.32;3.95;;;;;;;;;;4993104;28;20227;-73
2023/09/06 01:44:36;;;;;;;4.60;4.18;;;;;;;;;;4993580;28;20198;-73
2023/09/06 01:47:04;;;;;;;5.13;3.67;;;;;;;;;;4993178;28;20202;-73
2023/09/06 01:49:30;;;;;;;4.93;4.53;;;;;;;;;;4993227;28;20206;-73
2023/09/06 01:51:59;;;;;;;5.97;4.38;;;;;;;;;;4993112;28;20219;-73
2023/09/06 01:54:25;;;;;;;4.53;4.13;;;;;;;;;;4992992;28;20258;-73
2023/09/06 01:56:51;;;;;;;5.07;4.57;;;;;;;;;;4992867;28;20218;-73
2023/09/06 01:59:19;;;;;;;4.88;4.47;;;;;;;;;;4992980;28;20203;-73
2023/09/06 02:01:46;;;;;;;4.85;4.47;;;;;;;;;;4991328;28;20246;-73
2023/09/06 02:04:12;;;;;;;5.47;4.28;;;;;;;;;;4973466;28;20204;-73
2023/09/06 02:06:38;;;;;;;4.75;4.38;;;;;;;;;;4973662;28;20214;-73
2023/09/06 02:09:05;;;;;;;5.57;4.80;;;;;;;;;;4973425;28;20203;-73
2023/09/06 02:11:33;;;;;;;7.82;5.13;;;;;;;;;;4972455;28;20228;-73
2023/09/06 02:13:59;;;;;;;4.40;4.10;;;;;;;;;;4973217;28;20318;-73
2023/09/06 02:16:27;;;;;;;4.88;4.47;;;;;;;;;;4973202;28;20203;-73
2023/09/06 02:18:54;;;;;;;4.57;4.25;;;;;;;;;;4973398;28;20255;-73
2023/09/06 02:21:20;;;;;;;6.60;4.38;;;;;;;;;;4973295;28;20226;-73
2023/09/06 02:23:46;;;;;;;5.00;4.60;;;;;;;;;;4973058;28;20200;-73
2023/09/06 02:26:12;;;;;;;5.13;4.45;;;;;;;;;;4973218;28;20258;-73
2023/09/06 02:28:39;;;;;;;4.90;4.57;;;;;;;;;;4973036;28;20533;-73
2023/09/06 02:31:05;;;;;;;5.00;4.50;;;;;;;;;;4972950;28;20224;-73
2023/09/06 02:33:32;;;;;;;4.70;4.30;;;;;;;;;;4972884;28;20250;-73
2023/09/06 02:35:59;;;;;;;4.70;4.30;;;;;;;;;;4973321;28;20204;-73
2023/09/06 02:38:25;;;;;;;4.72;4.30;;;;;;;;;;4973141;28;20208;-73
2023/09/06 02:40:52;;;;;;;4.93;4.45;;;;;;;;;;4972978;28;20235;-73
2023/09/06 02:43:18;;;;;;;4.75;4.18;;;;;;;;;;4972473;28;20207;-73
2023/09/06 02:45:49;;;;;;;4.80;4.45;;;;;;;;;;4973117;28;20235;-73
2023/09/06 02:48:18;;;;;;;5.45;4.50;;;;;;;;;;4973238;28;20215;-73
2023/09/06 02:50:46;;;;;;;5.63;5.13;;;;;;;;;;4972899;28;20207;-73
2023/09/06 02:53:19;;;;;;;5.07;4.68;;;;;;;;;;4972472;28;20278;-73
2023/09/06 02:55:47;;;;;;;5.68;4.60;;;;;;;;;;4972825;28;20306;-73
2023/09/06 02:58:15;;;;;;;5.75;4.85;;;;;;;;;;4972673;28;20218;-73
2023/09/06 03:00:43;;;;;;;5.18;4.55;;;;;;;;;;4972751;28;20204;-73
2023/09/06 03:03:09;;;;;;;4.97;4.68;;;;;;;;;;4972622;28;20199;-73
2023/09/06 03:05:41;;;;;;;4.57;4.28;;;;;;;;;;4972890;28;20231;-73
2023/09/06 03:08:08;;;;;;;5.05;4.60;;;;;;;;;;4972603;28;20719;-73
2023/09/06 03:10:35;;;;;;;5.03;4.65;;;;;;;;;;4972635;28;20207;-73
2023/09/06 03:13:02;;;;;;;4.15;3.88;;;;;;;;;;4972309;28;20643;-73
2023/09/06 03:15:29;;;;;;;5.60;5.10;;;;;;;;;;4972772;28;20203;-73
2023/09/06 03:17:58;;;;;;;7.72;4.55;;;;;;;;;;4972818;28;20213;-73
2023/09/06 03:20:32;;;;;;;4.85;4.45;;;;;;;;;;4972660;28;20246;-73
2023/09/06 03:22:59;;;;;;;5.90;5.28;;;;;;;;;;4974220;28;20228;-73
2023/09/06 03:25:27;;;;;;;5.88;4.80;;;;;;;;;;4976563;28;20267;-73
2023/09/06 03:27:59;;;;;;;4.72;4.30;;;;;;;;;;4976492;28;20203;-73
2023/09/06 03:30:27;;;;;;;5.82;4.93;;;;;;;;;;4976639;28;20295;-73
2023/09/06 03:32:53;;;;;;;6.30;4.50;;;;;;;;;;4975908;28;20387;-73
2023/09/06 03:35:22;;;;;;;5.28;4.78;;;;;;;;;;4976208;28;20235;-73
2023/09/06 03:37:48;;;;;;;5.40;4.72;;;;;;;;;;4975927;28;20204;-73
2023/09/06 03:40:34;;;;;;;5.70;4.97;;;;;;;;;;4976410;28;20222;-73
2023/09/06 03:43:05;;;;;;;4.75;4.45;;;;;;;;;;4975745;28;20668;-73
2023/09/06 03:45:31;;;;;;;6.07;4.85;;;;;;;;;;4976117;28;20417;-73
2023/09/06 03:47:58;;;;;;;5.55;4.80;;;;;;;;;;4975774;28;20204;-73
2023/09/06 03:50:24;;;;;;;5.90;4.82;;;;;;;;;;4976186;28;20211;-73
2023/09/06 03:52:51;;;;;;;5.30;4.32;;;;;;;;;;4975668;28;20314;-73
2023/09/06 03:55:17;;;;;;;6.60;4.63;;;;;;;;;;4975810;28;20577;-73
2023/09/06 03:57:44;;;;;;;5.00;4.50;;;;;;;;;;4975634;28;20243;-73
2023/09/06 04:00:23;;;;;;;10.23;5.22;;;;;;;;;;4975769;28;20269;-73
2023/09/06 04:02:50;;;;;;;8.32;5.20;;;;;;;;;;4975519;28;20219;-73
2023/09/06 04:05:22;;;;;;;5.25;4.85;;;;;;;;;;4975738;28;20208;-73
2023/09/06 04:07:49;;;;;;;7.32;5.00;;;;;;;;;;4975580;28;20210;-73
2023/09/06 04:10:17;;;;;;;5.45;4.93;;;;;;;;;;4975681;28;20219;-73
2023/09/06 04:12:43;;;;;;;8.85;5.90;;;;;;;;;;4975120;28;20251;-73
2023/09/06 04:15:10;;;;;;;5.93;5.43;;;;;;;;;;4975194;28;20316;-73
2023/09/06 04:17:38;;;;;;;6.32;5.53;;;;;;;;;;4975494;28;20230;-73
2023/09/06 04:20:18;;;;;;;6.07;5.57;;;;;;;;;;4975367;28;20409;-73
2023/09/06 04:22:45;;;;;;;6.10;5.20;;;;;;;;;;4974998;28;20363;-72
2023/09/06 04:25:11;;;;;;;6.35;5.72;;;;;;;;;;4975049;28;20200;-60
2023/09/06 04:27:39;;;;;;;6.00;5.60;;;;;;;;;;4975070;28;20204;-60
2023/09/06 04:30:06;;;;;;;7.55;5.65;;;;;;;;;;4975310;28;20268;-60
2023/09/06 04:32:34;;;;;;;7.13;4.95;;;;;;;;;;4974828;28;20255;-60
2023/09/06 04:35:02;;;;;;;6.05;5.55;;;;;;;;;;4974318;28;20224;-60
2023/09/06 04:37:28;;;;;;;7.70;6.00;;;;;;;;;;4974950;28;20214;-62
2023/09/06 04:39:54;;;;;;;6.95;5.80;;;;;;;;;;4974791;28;20262;-60
2023/09/06 04:42:21;;;;;;;5.93;5.43;;;;;;;;;;4974483;28;20758;-60
2023/09/06 04:44:47;;;;;;;6.47;5.82;;;;;;;;;;4975105;28;20204;-60
2023/09/06 04:47:14;;;;;;;5.63;5.13;;;;;;;;;;4974855;28;20211;-60
2023/09/06 04:49:40;;;;;;;9.40;5.68;;;;;;;;;;4974567;28;20564;-61
2023/09/06 04:52:08;;;;;;;6.80;5.20;;;;;;;;;;4974472;28;20255;-60
2023/09/06 04:54:34;;;;;;;6.65;5.88;;;;;;;;;;4974538;28;20275;-60
2023/09/06 04:57:00;;;;;;;9.48;6.57;;;;;;;;;;4974692;28;20215;-60
2023/09/06 04:59:26;;;;;;;6.30;5.78;;;;;;;;;;4974631;28;20207;-60
2023/09/06 05:01:53;;;;;;;6.30;5.80;;;;;;;;;;4974483;28;20224;-60
2023/09/06 05:04:19;;;;;;;7.90;6.50;;;;;;;;;;4974254;28;20200;-60
2023/09/06 05:06:45;;;;;;;9.40;5.72;;;;;;;;;;4974408;28;20290;-60
2023/09/06 05:09:15;;;;;;;6.15;5.55;;;;;;;;;;4974177;28;20203;-60
2023/09/06 05:11:42;;;;;;;6.88;6.22;;;;;;;;;;4974493;28;20314;-60
2023/09/06 05:14:10;;;;;;;6.47;5.88;;;;;;;;;;4974362;28;20271;-60
2023/09/06 05:16:36;;;;;;;6.10;5.53;;;;;;;;;;4974369;28;20208;-60
2023/09/06 05:19:02;;;;;;;6.40;5.90;;;;;;;;;;4974332;28;20211;-60
2023/09/06 05:21:29;;;;;;;6.55;5.75;;;;;;;;;;4973861;28;20224;-60
2023/09/06 05:23:55;;;;;;;6.68;6.07;;;;;;;;;;4973806;28;20204;-60
2023/09/06 05:26:23;;;;;;;7.68;6.60;;;;;;;;;;4973928;28;20208;-60
2023/09/06 05:28:49;;;;;;;7.78;6.47;;;;;;;;;;4974137;28;20208;-60
2023/09/06 05:31:17;;;;;;;8.15;6.35;;;;;;;;;;4973937;28;20231;-60
2023/09/06 05:33:44;;;;;;;8.80;6.75;;;;;;;;;;4973671;28;20499;-60
2023/09/06 05:36:10;;;;;;;6.97;6.38;;;;;;;;;;4973663;28;20680;-60
2023/09/06 05:38:37;;;;;;;9.48;6.35;;;;;;;;;;4973710;28;20707;-60
2023/09/06 05:41:03;;;;;;;7.80;6.40;;;;;;;;;;4973985;28;20243;-60
2023/09/06 05:43:31;;;;;;;8.88;6.30;;;;;;;;;;4973547;28;20203;-60
2023/09/06 05:45:57;;;;;;;7.28;6.55;;;;;;;;;;4973735;28;20208;-60
2023/09/06 05:48:23;;;;;;;6.35;5.80;;;;;;;;;;4973666;28;20393;-60
2023/09/06 05:50:49;;;;;;;7.10;6.07;;;;;;;;;;4966733;28;20200;-60
2023/09/06 05:53:16;;;;;;;7.30;6.32;;;;;;;;;;4970434;28;20211;-60
2023/09/06 05:55:42;;;;;;;6.97;5.75;;;;;;;;;;4972298;28;20274;-60
2023/09/06 05:58:08;;;;;;;7.72;6.25;;;;;;;;;;4970536;28;20223;-60
2023/09/06 06:00:37;;;;;;;12.07;6.75;;;;;;;;;;4969926;28;20208;-61
2023/09/06 06:03:03;;;;;;;9.25;6.32;;;;;;;;;;4969634;28;20215;-61
2023/09/06 06:05:29;;;;;;;11.38;6.25;;;;;;;;;;4969638;28;20211;-61
2023/09/06 06:07:57;;;;;;;11.30;5.80;;;;;;;;;;4970858;28;20203;-61
2023/09/06 06:10:23;;;;;;;14.70;6.82;;;;;;;;;;4970095;28;20236;-59
2023/09/06 06:12:50;;;;;;;10.23;6.65;;;;;;;;;;4968868;28;20236;-61
2023/09/06 06:15:16;;;;;;;11.88;6.78;;;;;;;;;;4969192;28;20240;-61
2023/09/06 06:17:43;;;;;;;11.60;6.80;;;;;;;;;;4968674;28;20211;-61
2023/09/06 06:20:10;;;;;;;10.77;6.50;;;;;;;;;;4969471;28;20214;-61
2023/09/06 06:22:38;;;;;;;7.25;6.45;;;;;;;;;;4969358;28;20339;-60
2023/09/06 06:25:05;;;;;;;9.20;6.28;;;;;;;;;;4970641;28;20208;-63
2023/09/06 06:27:31;;;;;;;12.98;6.88;;;;;;;;;;4967030;28;20231;-62
2023/09/06 06:29:57;;;;;;;16.63;7.13;;;;;;;;;;4968938;28;20212;-61
2023/09/06 06:32:24;;;;;;;12.68;6.72;;;;;;;;;;4968472;28;20726;-63
2023/09/06 06:34:54;;;;;;;12.35;6.38;;;;;;;;;;4968701;28;20227;-63
2023/09/06 06:37:20;;;;;;;12.23;7.43;;;;;;;;;;4969122;28;20239;-62
2023/09/06 06:39:47;;;;;;;10.10;7.07;;;;;;;;;;4969988;28;20204;-61
2023/09/06 06:42:13;;;;;;;9.20;7.57;;;;;;;;;;4968547;28;20637;-62
2023/09/06 06:44:42;;;;;;;11.57;7.00;;;;;;;;;;4972897;28;20663;-62
2023/09/06 06:47:08;;;;;;;7.38;6.60;;;;;;;;;;4969183;28;20211;-62
2023/09/06 06:49:34;;;;;;;11.02;6.78;;;;;;;;;;4969184;28;20304;-62
2023/09/06 06:52:02;;;;;;;11.90;7.38;;;;;;;;;;4968863;28;20710;-62
2023/09/06 07:10:01;;;;;;;9.82;6.80;;;;;;;;;;5232420;23;20263;-62
2023/09/06 07:12:27;;;;;;;11.25;6.72;;;;;;;;;;4962122;28;20306;-63
2023/09/06 07:14:54;;;;;;;7.63;6.30;;;;;;;;;;4972463;28;20242;-61
2023/09/06 07:17:20;;;;;;;9.75;6.30;;;;;;;;;;4973042;28;20211;-60
2023/09/06 07:19:46;;;;;;;9.98;6.90;;;;;;;;;;4968451;28;20219;-61
2023/09/06 07:22:12;;;;;;;9.05;6.38;;;;;;;;;;4967516;28;20216;-61
2023/09/06 07:24:39;;;;;;;11.38;6.15;;;;;;;;;;4966010;28;20204;-60
2023/09/06 07:27:06;;;;;;;7.80;6.40;;;;;;;;;;4965718;28;20208;-61
2023/09/06 07:29:32;;;;;;;7.82;6.53;;;;;;;;;;4960432;28;20303;-64
2023/09/06 07:31:59;;;;;;;10.38;6.60;;;;;;;;;;4970454;28;20200;-61
2023/09/06 07:34:25;;;;;;;11.30;5.63;;;;;;;;;;4971384;28;20239;-60
2023/09/06 07:36:51;;;;;;;7.65;5.90;;;;;;;;;;4964997;28;20216;-63
2023/09/06 07:39:18;;;;;;;7.22;6.30;;;;;;;;;;4970444;28;20214;-62
2023/09/06 07:41:44;;;;;;;12.32;5.82;;;;;;;;;;4972553;28;20335;-64
2023/09/06 07:44:12;;;;;;;8.30;5.55;;;;;;;;;;4958106;28;20691;-62
2023/09/06 07:46:40;;;;;;;10.30;5.78;;;;;;;;;;4972305;28;20227;-62
2023/09/06 07:49:06;;;;;;;7.78;5.50;;;;;;;;;;4971894;28;20207;-62
2023/09/06 07:51:32;;;;;;;5.72;5.22;;;;;;;;;;4972334;28;20218;-61
2023/09/06 07:53:59;;;;;;;5.40;4.95;;;;;;;;;;4971817;28;20208;-64
2023/09/06 07:56:25;;;;;;;5.70;4.80;;;;;;;;;;4971466;28;20231;-61
2023/09/06 07:58:51;;;;;;;6.13;5.15;;;;;;;;;;4967944;28;20396;-64
2023/09/06 08:01:19;;;;;;;5.57;5.13;;;;;;;;;;4971180;28;20216;-64
2023/09/06 08:03:45;;;;;;;9.15;5.38;;;;;;;;;;4966152;28;20208;-63
2023/09/06 08:06:12;;;;;;;6.13;5.53;;;;;;;;;;4965849;28;20315;-60
2023/09/06 08:08:38;;;;;;;9.43;5.47;;;;;;;;;;4968824;28;20680;-63
2023/09/06 08:11:06;;;;;;;6.70;5.00;;;;;;;;;;4971190;28;20698;-61
2023/09/06 08:13:33;;;;;;;6.00;5.50;;;;;;;;;;4966222;28;20290;-63
2023/09/06 08:16:00;;;;;;;8.38;5.28;;;;;;;;;;4954892;28;20232;-62
2023/09/06 08:18:28;;;;;;;12.82;5.50;;;;;;;;;;4964642;28;20216;-63
2023/09/06 08:20:54;;;;;;;8.18;5.50;;;;;;;;;;4965892;28;20263;-63
2023/09/06 08:23:20;;;;;;;12.25;5.20;;;;;;;;;;4969859;28;20212;-63
2023/09/06 08:25:47;;;;;;;6.43;5.43;;;;;;;;;;4966093;28;20238;-60
2023/09/06 08:28:14;;;;;;;6.70;5.32;;;;;;;;;;4971138;28;20220;-61
2023/09/06 08:30:41;;;;;;;5.40;4.90;;;;;;;;;;4960832;28;20303;-61
2023/09/06 08:33:07;;;;;;;9.93;5.43;;;;;;;;;;4960020;28;20244;-62
2023/09/06 08:35:35;;;;;;;6.57;4.88;;;;;;;;;;4969927;28;20668;-62
2023/09/06 08:38:02;;;;;;;10.38;5.72;;;;;;;;;;4971149;28;20215;-63
2023/09/06 08:40:28;;;;;;;5.80;4.85;;;;;;;;;;4971026;28;20232;-61
2023/09/06 08:42:55;;;;;;;6.07;5.13;;;;;;;;;;4964734;28;20208;-61
2023/09/06 08:45:22;;;;;;;11.18;4.80;;;;;;;;;;4957177;28;20727;-62
2023/09/06 08:47:49;;;;;;;7.65;4.97;;;;;;;;;;4966935;28;20211;-62
2023/09/06 08:50:15;;;;;;;5.18;4.78;;;;;;;;;;4963835;28;20641;-61
2023/09/06 08:52:44;;;;;;;5.07;4.68;;;;;;;;;;4970412;28;20211;-61
2023/09/06 08:55:10;;;;;;;6.50;4.80;;;;;;;;;;4967976;28;20595;-62
2023/09/06 08:57:38;;;;;;;4.93;4.28;;;;;;;;;;4968503;28;20208;-62
2023/09/06 09:00:05;;;;;;;10.18;4.50;;;;;;;;;;4960412;28;20211;-62
2023/09/06 09:02:31;;;;;;;8.00;4.78;;;;;;;;;;4970249;28;20294;-63
2023/09/06 09:04:57;;;;;;;5.50;4.80;;;;;;;;;;4970437;28;20239;-64
2023/09/06 09:07:25;;;;;;;6.10;4.57;;;;;;;;;;4970705;28;20204;-64
2023/09/06 09:10:00;;;;;;;8.48;4.22;;;;;;;;;;4970656;28;20207;-62
2023/09/06 09:12:27;;;;;;;5.30;4.20;;;;;;;;;;4967261;28;20273;-63
2023/09/06 09:14:54;;;;;;;5.53;4.15;;;;;;;;;;4964037;28;20234;-63
2023/09/06 09:17:21;;;;;;;5.95;4.20;;;;;;;;;;4966734;28;20224;-63
2023/09/06 09:19:49;;;;;;;6.72;4.50;;;;;;;;;;4959449;28;20286;-62
2023/09/06 09:22:15;;;;;;;9.85;4.43;;;;;;;;;;4963430;28;20226;-63
2023/09/06 09:24:42;;;;;;;4.93;4.50;;;;;;;;;;4956667;28;20305;-63
2023/09/06 09:27:10;;;;;;;10.65;4.35;;;;;;;;;;4962276;28;20219;-64
2023/09/06 09:29:36;;;;;;;7.28;4.30;;;;;;;;;;4961323;28;20211;-64
2023/09/06 09:32:05;;;;;;;8.48;4.57;;;;;;;;;;4960941;28;20223;-63
2023/09/06 09:34:32;;;;;;;8.00;4.70;;;;;;;;;;4964415;28;20698;-63
2023/09/06 09:36:58;;;;;;;4.75;4.20;;;;;;;;;;4959183;28;20952;-64
2023/09/06 09:39:26;;;;;;;9.50;4.60;;;;;;;;;;4953362;28;20611;-64
2023/09/06 09:41:52;;;;;;;6.32;4.28;;;;;;;;;;4964598;28;20686;-63
2023/09/06 09:44:20;;;;;;;7.55;4.20;;;;;;;;;;4953463;28;20256;-64
2023/09/06 09:46:47;;;;;;;3.95;3.25;;;;;;;;;;4965344;28;20203;-64
2023/09/06 09:49:14;;;;;;;5.18;4.40;;;;;;;;;;4968280;28;20217;-64
2023/09/06 09:51:41;;;;;;;5.43;3.90;;;;;;;;;;4962057;28;20258;-65
2023/09/06 09:54:08;;;;;;;5.10;4.18;;;;;;;;;;4969255;28;20686;-64
2023/09/06 09:56:36;;;;;;;3.95;3.60;;;;;;;;;;4969103;28;20226;-64
2023/09/06 09:59:03;;;;;;;4.55;4.20;;;;;;;;;;4967583;28;20207;-64
2023/09/06 10:01:31;;;;;;;6.65;3.67;;;;;;;;;;4968477;28;20220;-59
2023/09/06 10:03:58;;;;;;;5.72;4.13;;;;;;;;;;4970195;28;20215;-65
2023/09/06 10:06:25;;;;;;;8.65;4.30;;;;;;;;;;4959732;28;20307;-65
2023/09/06 10:08:54;;;;;;;8.23;4.22;;;;;;;;;;4969939;28;20237;-64
2023/09/06 10:11:21;;;;;;;5.53;4.40;;;;;;;;;;4969048;28;20236;-65
2023/09/06 10:13:49;;;;;;;4.95;4.53;;;;;;;;;;4963112;28;20278;-65
2023/09/06 10:16:16;;;;;;;4.45;3.85;;;;;;;;;;4962630;28;20231;-65
2023/09/06 10:18:44;;;;;;;4.07;3.78;;;;;;;;;;4961854;28;20206;-63
2023/09/06 10:21:12;;;;;;;4.10;3.90;;;;;;;;;;4957324;28;20223;-63
2023/09/06 10:23:41;;;;;;;4.70;4.03;;;;;;;;;;4966380;28;20215;-64
2023/09/06 10:26:07;;;;;;;4.47;3.72;;;;;;;;;;4957537;28;20224;-64
2023/09/06 10:28:34;;;;;;;3.72;3.28;;;;;;;;;;4966307;28;20214;-63
2023/09/06 10:31:07;;;;;;;3.70;3.40;;;;;;;;;;4961970;28;20211;-63
2023/09/06 10:33:55;;;;;;;4.20;3.80;;;;;;;;;;4956375;28;20290;-62
2023/09/06 10:36:27;;;;;;;4.60;3.63;;;;;;;;;;4958321;28;20233;-63
2023/09/06 10:39:14;;;;;;;5.93;3.47;;;;;;;;;;4966788;28;20297;-64
2023/09/06 10:42:00;;;;;;;4.68;3.63;;;;;;;;;;4963203;28;20230;-64
2023/09/06 10:44:29;;;;;;;4.20;3.88;;;;;;;;;;4965726;28;20219;-65
2023/09/06 10:46:56;;;;;;;4.20;3.45;;;;;;;;;;4963870;28;20294;-64
2023/09/06 10:49:23;;;;;;;4.38;3.97;;;;;;;;;;4966585;28;20681;-63
2023/09/06 10:51:57;;;;;;;4.18;3.63;;;;;;;;;;4965021;28;20218;-64
2023/09/06 10:54:23;;;;;;;5.57;3.83;;;;;;;;;;4961722;28;20208;-64
2023/09/06 10:56:57;;;;;;;4.88;3.75;;;;;;;;;;4964913;28;20223;-63
2023/09/06 10:59:24;;;;;;;3.58;3.25;;;;;;;;;;4966480;28;20293;-63
2023/09/06 11:02:08;;;;;;;3.80;3.60;;;;;;;;;;4962633;28;20218;-65
2023/09/06 11:04:34;;;;;;;5.20;3.22;;;;;;;;;;4967680;28;20218;-65
2023/09/06 11:07:09;;;;;;;4.07;3.65;;;;;;;;;;4968848;28;20656;-65
2023/09/06 11:09:36;;;;;;;3.65;3.08;;;;;;;;;;4964442;28;20679;-66
2023/09/06 11:12:03;;;;;;;7.00;3.38;;;;;;;;;;4963652;28;20207;-65
2023/09/06 11:14:30;;;;;;;6.28;3.60;;;;;;;;;;4962028;28;20302;-65
2023/09/06 11:16:56;;;;;;;3.10;2.90;;;;;;;;;;4968956;28;20234;-65
2023/09/06 11:19:31;;;;;;;5.78;3.25;;;;;;;;;;4968744;28;20671;-65
2023/09/06 11:22:06;;;;;;;3.28;3.17;;;;;;;;;;4968844;28;20629;-65
2023/09/06 11:24:32;;;;;;;4.65;3.50;;;;;;;;;;4965013;28;20214;-65
2023/09/06 11:27:03;;;;;;;3.40;3.10;;;;;;;;;;4958576;28;20232;-64
2023/09/06 11:29:30;;;;;;;6.45;3.15;;;;;;;;;;4955265;28;20219;-63
2023/09/06 11:32:08;;;;;;;3.22;3.03;;;;;;;;;;4958711;28;20212;-63
2023/09/06 11:34:41;;;;;;;4.75;3.38;;;;;;;;;;4961011;28;20591;-63
2023/09/06 11:37:10;;;;;;;3.38;3.15;;;;;;;;;;4960916;28;20434;-64
2023/09/06 11:39:39;;;;;;;6.70;3.78;;;;;;;;;;4955289;28;21035;-64
2023/09/06 11:42:08;;;;;;;6.07;3.75;;;;;;;;;;4951951;28;20218;-64
2023/09/06 11:44:34;;;;;;;3.30;3.10;;;;;;;;;;4966988;28;20212;-64
2023/09/06 11:47:04;;;;;;;3.95;3.50;;;;;;;;;;4972641;28;20242;-64
2023/09/06 11:49:32;;;;;;;4.05;3.75;;;;;;;;;;4969097;28;20209;-64
2023/09/06 11:52:00;;;;;;;3.30;3.03;;;;;;;;;;4970249;28;20750;-64
2023/09/06 11:54:31;;;;;;;3.60;3.30;;;;;;;;;;4964782;28;20211;-64
2023/09/06 11:56:57;;;;;;;3.40;3.10;;;;;;;;;;4969924;28;20231;-65
2023/09/06 11:59:24;;;;;;;3.15;2.95;;;;;;;;;;4959988;28;20212;-64
2023/09/06 12:01:55;;;;;;;3.25;3.03;;;;;;;;;;4971471;28;20315;-63
2023/09/06 12:04:22;;;;;;;3.40;3.15;;;;;;;;;;4968426;28;20747;-65
2023/09/06 12:06:51;;;;;;;3.38;3.20;;;;;;;;;;4959244;28;20504;-65
2023/09/06 12:09:18;;;;;;;3.33;3.22;;;;;;;;;;4967784;28;20215;-63
2023/09/06 12:11:46;;;;;;;3.40;3.10;;;;;;;;;;4969168;28;20218;-64
2023/09/06 12:14:12;;;;;;;6.20;4.03;;;;;;;;;;4956930;28;20220;-65
2023/09/06 12:16:39;;;;;;;8.48;4.10;;;;;;;;;;4970762;28;20358;-63
2023/09/06 12:19:05;;;;;;;3.50;3.30;;;;;;;;;;4971991;28;20211;-63
2023/09/06 12:21:32;;;;;;;7.68;3.35;;;;;;;;;;4969710;28;20215;-65
2023/09/06 12:23:58;;;;;;;3.60;3.40;;;;;;;;;;4965300;28;20298;-65
2023/09/06 12:26:25;;;;;;;5.07;3.22;;;;;;;;;;4964295;28;20319;-65
2023/09/06 12:28:52;;;;;;;5.03;3.10;;;;;;;;;;4957313;28;20207;-66
2023/09/06 12:31:19;;;;;;;2.88;2.67;;;;;;;;;;4967758;28;20219;-65
2023/09/06 12:33:47;;;;;;;3.17;3.08;;;;;;;;;;4971578;28;20207;-65
2023/09/06 12:36:14;;;;;;;3.10;2.90;;;;;;;;;;4970858;28;20257;-65
2023/09/06 12:38:40;;;;;;;3.85;3.55;;;;;;;;;;4969631;28;20256;-65
2023/09/06 12:41:06;;;;;;;4.38;3.22;;;;;;;;;;4971239;28;20210;-65
2023/09/06 12:43:34;;;;;;;3.47;3.22;;;;;;;;;;4969057;28;20265;-65
2023/09/06 12:46:11;;;;;;;3.65;3.35;;;;;;;;;;4969914;28;20309;-65
2023/09/06 12:48:37;;;;;;;2.90;2.80;;;;;;;;;;4971147;28;20206;-65
2023/09/06 12:51:05;;;;;;;3.72;3.40;;;;;;;;;;4970495;28;20240;-62
2023/09/06 12:53:32;;;;;;;4.63;3.20;;;;;;;;;;4969188;28;20215;-65
2023/09/06 12:55:58;;;;;;;5.35;3.30;;;;;;;;;;4967420;28;20258;-65
2023/09/06 12:58:24;;;;;;;3.05;2.88;;;;;;;;;;4961713;28;20232;-65
2023/09/06 13:00:51;;;;;;;3.75;3.50;;;;;;;;;;4958282;28;20680;-65
2023/09/06 13:03:19;;;;;;;5.38;3.33;;;;;;;;;;4968597;28;20873;-65
2023/09/06 13:05:48;;;;;;;3.97;3.58;;;;;;;;;;4969927;28;20238;-65
2023/09/06 13:08:14;;;;;;;4.32;3.38;;;;;;;;;;4970894;28;20218;-65
2023/09/06 13:10:41;;;;;;;3.55;3.17;;;;;;;;;;4968818;28;20255;-65
2023/09/06 13:13:07;;;;;;;5.75;3.58;;;;;;;;;;4961742;28;20227;-65
2023/09/06 13:15:33;;;;;;;3.97;3.67;;;;;;;;;;4960330;28;20228;-65
2023/09/06 13:18:00;;;;;;;4.35;3.30;;;;;;;;;;4970505;28;20226;-65
2023/09/06 13:20:27;;;;;;;3.50;3.30;;;;;;;;;;4963416;28;20215;-65
2023/09/06 13:22:53;;;;;;;4.05;3.78;;;;;;;;;;4967836;28;20595;-63
2023/09/06 13:25:20;;;;;;;3.28;3.08;;;;;;;;;;4970344;28;20243;-63
2023/09/06 13:27:47;;;;;;;3.40;3.00;;;;;;;;;;4965401;28;20246;-64
2023/09/06 13:30:14;;;;;;;5.28;3.10;;;;;;;;;;4965279;28;20207;-64
2023/09/06 13:32:40;;;;;;;3.55;3.25;;;;;;;;;;4969687;28;20301;-64
2023/09/06 13:35:06;;;;;;;4.53;3.65;;;;;;;;;;4969713;28;20227;-64
2023/09/06 13:37:34;;;;;;;3.70;3.40;;;;;;;;;;4970052;28;20233;-64
2023/09/06 13:40:00;;;;;;;3.67;3.38;;;;;;;;;;4970342;28;20211;-64
2023/09/06 13:42:27;;;;;;;6.30;3.10;;;;;;;;;;4966298;28;20211;-64
2023/09/06 13:44:54;;;;;;;5.43;3.38;;;;;;;;;;4963523;28;20223;-74
2023/09/06 13:47:20;;;;;;;3.40;3.05;;;;;;;;;;4969521;28;20211;-75
2023/09/06 13:49:46;;;;;;;5.13;3.22;;;;;;;;;;4963712;28;20215;-75
2023/09/06 13:52:13;;;;;;;3.38;3.10;;;;;;;;;;4960384;28;20215;-74
2023/09/06 13:54:40;;;;;;;3.17;2.97;;;;;;;;;;4967189;28;20215;-75
2023/09/06 13:57:07;;;;;;;4.20;2.80;;;;;;;;;;4958597;28;20541;-76
2023/09/06 13:59:33;;;;;;;3.53;3.33;;;;;;;;;;4961196;28;20219;-75
2023/09/06 14:01:59;;;;;;;4.28;3.03;;;;;;;;;;4958473;28;20217;-75
2023/09/06 14:04:26;;;;;;;3.35;3.13;;;;;;;;;;4961987;28;20207;-75
2023/09/06 14:06:53;;;;;;;7.05;4.80;;;;;;;;;;4961682;28;20210;-75
2023/09/06 14:09:19;;;;;;;7.20;5.68;;;;;;;;;;4962709;28;20226;-75
2023/09/06 14:11:46;;;;;;;4.25;3.53;;;;;;;;;;4958900;28;20242;-75
2023/09/06 14:14:13;;;;;;;5.25;3.78;;;;;;;;;;4951991;28;20231;-75
2023/09/06 14:16:39;;;;;;;3.13;2.90;;;;;;;;;;4965087;28;20903;-75
2023/09/06 14:19:05;;;;;;;3.72;2.92;;;;;;;;;;4966591;28;20211;-75
2023/09/06 14:21:33;;;;;;;3.70;3.42;;;;;;;;;;4966393;28;20706;-75
2023/09/06 14:23:59;;;;;;;3.58;3.25;;;;;;;;;;4967152;28;20214;-76
2023/09/06 14:26:26;;;;;;;3.67;3.33;;;;;;;;;;4966540;28;20227;-75
2023/09/06 14:28:53;;;;;;;3.53;3.20;;;;;;;;;;4959598;28;20242;-78
2023/09/06 14:31:20;;;;;;;3.05;2.70;;;;;;;;;;4967983;28;20261;-76
2023/09/06 14:33:46;;;;;;;6.38;3.17;;;;;;;;;;4967261;28;20226;-75
2023/09/06 14:36:12;;;;;;;3.40;2.90;;;;;;;;;;4968032;28;20416;-77
2023/09/06 14:38:39;;;;;;;4.07;2.97;;;;;;;;;;4967325;28;20603;-76
2023/09/06 14:41:05;;;;;;;2.88;2.72;;;;;;;;;;4967296;28;20215;-76
2023/09/06 14:43:30;;;;;;;3.93;3.00;;;;;;;;;;4968691;28;20445;-76
2023/09/06 14:46:03;;;;;;;3.47;3.25;;;;;;;;;;4972470;28;20219;-76
2023/09/06 14:48:29;;;;;;;5.22;3.10;;;;;;;;;;4972996;28;20278;-76
2023/09/06 14:50:59;;;;;;;2.90;2.65;;;;;;;;;;4972748;28;20261;-76
2023/09/06 14:53:25;;;;;;;2.88;2.53;;;;;;;;;;4972372;28;20207;-76
2023/09/06 14:55:52;;;;;;;5.53;2.88;;;;;;;;;;4972190;28;20223;-76
2023/09/06 14:58:18;;;;;;;4.22;2.78;;;;;;;;;;4973123;28;20628;-76
2023/09/06 15:00:44;;;;;;;2.88;2.72;;;;;;;;;;4972880;28;20238;-76